APL New Jersey — A8NM6 — position and weather

sailwx.info

Track history (hours):
 
Tides and Currents Weather Stations Pressure Air Temp Water Temp Dewpoint Dewpoint Depression Visibility Wind Speed Wind Dir Waves Ship Positions

APL New Jersey

Last reported at 2016-Sep-17 21:33 UTC. Time now 2016-Sep-29 06:43 UTC.
Position N 39°37' W 128°32'.
Warning: this ship's position is 11 days out of date.

Length 293 m; draft 10.5 m.

Type: Cargo ship. MMSI: 636013522.

Date/timePositionNaut miles runAvg speedWind from/ knotsBaromVisibWave heightAir tempDewpointWater temp
2016-Sep-17 21:33N 39°37' W 128°32'3915.8
2016-Sep-17 19:07N 39°24' W 127°45'8515.1
2016-Sep-17 13:28N 38°56' W 126°01'1514.4
2016-Sep-17 12:23N 38°51' W 125°42'4315.0
2016-Sep-17 09:33N 38°37' W 124°51'1515.1
2016-Sep-17 08:34N 38°32' W 124°33'1514.9
2016-Sep-17 07:34N 38°27' W 124°15'3014.9
2016-Sep-17 05:34N 38°17' W 123°39'1515.1
2016-Sep-17 04:34N 38°10' W 123°22'5212.9
2016-Sep-17 00:33N 37°48' W 122°22'2 0.3
2016-Sep-16 17:31N 37°48' W 122°19'0 0.0
2016-Sep-16 15:31N 37°48' W 122°19'0 0.0
2016-Sep-16 12:31N 37°48' W 122°19'0 0.0
2016-Sep-16 09:31N 37°48' W 122°19'0 0.0
2016-Sep-16 07:31N 37°48' W 122°19'0 0.0
2016-Sep-16 03:31N 37°48' W 122°19'0 0.0
2016-Sep-16 02:31N 37°48' W 122°19'8 3.9
2016-Sep-16 00:33N 37°49' W 122°29'2211.1
2016-Sep-15 22:33N 37°28' W 122°40'1414.3
2016-Sep-15 21:33N 37°14' W 122°40'1312.9
2016-Sep-15 20:33N 37°01' W 122°36'3216.1
2016-Sep-15 18:33N 36°31' W 122°21'23216.5
2016-Sep-15 04:33N 33°54' W 118°53'1310.8
2016-Sep-15 03:23N 33°48' W 118°40'2011.0
2016-Sep-15 01:33N 33°39' W 118°19'6 1.9
2016-Sep-14 22:31N 33°44' W 118°16'0 0.0
2016-Sep-14 21:31N 33°44' W 118°16'0 0.0
2016-Sep-14 17:25N 33°44' W 118°16'0 0.0
2016-Sep-14 16:31N 33°44' W 118°16'0 0.0
2016-Sep-14 13:28N 33°44' W 118°16'0 0.0
2016-Sep-14 12:16N 33°44' W 118°16'0 0.0
2016-Sep-14 10:19N 33°44' W 118°16'0 0.0
2016-Sep-14 09:31N 33°44' W 118°16'0 0.0
2016-Sep-14 08:28N 33°44' W 118°16'0 0.0
2016-Sep-14 07:31N 33°44' W 118°16'0 0.0
2016-Sep-14 06:31N 33°44' W 118°16'0 0.0
2016-Sep-14 03:13N 33°44' W 118°16'0 0.0
2016-Sep-13 22:31N 33°44' W 118°16'0 0.0
2016-Sep-13 11:28N 33°44' W 118°16'0 0.0
2016-Sep-13 09:31N 33°44' W 118°16'0 0.0
2016-Sep-13 07:14N 33°44' W 118°16'0 0.0
2016-Sep-13 04:32N 33°44' W 118°16'0 0.0
2016-Sep-13 02:26N 33°44' W 118°16'0 0.0
2016-Sep-12 21:17N 33°44' W 118°16'0 0.0
2016-Sep-12 19:17N 33°44' W 118°16'0 0.0
2016-Sep-12 17:32N 33°44' W 118°16'0 0.0
2016-Sep-12 14:32N 33°44' W 118°16'0 0.0
2016-Sep-12 13:29N 33°44' W 118°16'0 0.0
2016-Sep-12 12:32N 33°44' W 118°16'0 0.0
2016-Sep-12 11:32N 33°44' W 118°16'0 0.0
2016-Sep-12 10:32N 33°44' W 118°16'0 0.0
2016-Sep-12 07:32N 33°44' W 118°16'0 0.0
2016-Sep-12 06:32N 33°44' W 118°16'0 0.0
2016-Sep-12 03:32N 33°44' W 118°16'0 0.0
2016-Sep-12 01:32N 33°44' W 118°16'0 0.0
2016-Sep-11 23:32N 33°44' W 118°16'0 0.0
2016-Sep-11 22:32N 33°44' W 118°16'1 0.6
2016-Sep-11 21:33N 33°43' W 118°16'6 5.8
2016-Sep-11 20:33N 33°37' W 118°15'7 7.3
2016-Sep-11 19:33N 33°38' W 118°24'10 9.7
2016-Sep-11 18:34N 33°42' W 118°34'1010.2
2016-Sep-11 17:33N 33°47' W 118°45'1010.4
2016-Sep-11 16:33N 33°53' W 118°56'1010.3
2016-Sep-11 15:33N 33°58' W 119°07'1111.3
2016-Sep-11 14:33N 34°03' W 119°19'1515.5
2016-Sep-11 13:33N 34°07' W 119°37'1615.8
2016-Sep-11 12:33N 34°11' W 119°55'1515.3
2016-Sep-11 11:33N 34°15' W 120°13'1615.5
2016-Sep-11 10:32N 34°20' W 120°31'2713.5
2016-Sep-11 08:33N 34°27' W 121°02'1814.8
2016-Sep-11 07:20N 34°33' W 121°23'5614.9
2016-Sep-11 03:34N 34°53' W 122°27'1515.4
2016-Sep-11 02:33N 34°59' W 122°45'1515.3
2016-Sep-11 01:34N 35°05' W 123°02'1615.6
2016-Sep-11 00:32N 35°10' W 123°20'1515.6
2016-Sep-10 23:34N 35°16' W 123°38'1615.5
2016-Sep-10 22:33N 35°22' W 123°55'1615.6
2016-Sep-10 21:34N 35°27' W 124°13'1615.6
2016-Sep-10 20:34N 35°33' W 124°31'1615.7
2016-Sep-10 19:33N 35°38' W 124°49'1616.0
2016-Sep-10 18:34N 35°45' W 125°07'1615.8
2016-Sep-10 17:33N 35°52' W 125°24'1515.4
2016-Sep-10 16:33N 35°59' W 125°41'1515.5
2016-Sep-10 15:34N 36°06' W 125°58'1615.9
2016-Sep-10 14:33N 36°14' W 126°16'1615.8
2016-Sep-10 13:33N 36°22' W 126°33'1715.6
2016-Sep-10 12:28N 36°29' W 126°52'1617.6
2016-Sep-10 11:33N 36°38' W 127°08'4220.8
2016-Sep-10 09:33N 37°02' W 127°51'5321.6
2016-Sep-10 07:07N 37°32' W 128°46'1221.3
2016-Sep-10 06:32N 37°39' W 128°58'6321.0
2016-Sep-10 03:33N 38°14' W 130°05'2121.0
2016-Sep-10 02:33N 38°25' W 130°27'2120.9
2016-Sep-10 01:34N 38°36' W 130°49'2120.8
2016-Sep-10 00:33N 38°48' W 131°12'2120.8
2016-Sep-09 23:33N 38°59' W 131°34'2121.0
2016-Sep-09 22:33N 39°10' W 131°57'4221.1
2016-Sep-09 20:33N 39°32' W 132°43'  
Track history (hours):
 
Tides and Currents Weather Stations Pressure Air Temp Water Temp Dewpoint Dewpoint Depression Visibility Wind Speed Wind Dir Waves Ship Positions

APL New Jersey

Last reported at 2016-Sep-17 21:33 UTC. Time now 2016-Sep-29 06:43 UTC.
Position N 39°37' W 128°32'.
Warning: this ship's position is 11 days out of date.

Length 293 m; draft 10.5 m.

Type: Cargo ship. MMSI: 636013522.

Date/timePositionNaut miles runAvg speedWind from/ knotsBaromVisibWave heightAir tempDewpointWater temp
2016-Sep-17 21:33N 39°37' W 128°32'3915.8
2016-Sep-17 19:07N 39°24' W 127°45'8515.1
2016-Sep-17 13:28N 38°56' W 126°01'1514.4
2016-Sep-17 12:23N 38°51' W 125°42'4315.0
2016-Sep-17 09:33N 38°37' W 124°51'1515.1
2016-Sep-17 08:34N 38°32' W 124°33'1514.9
2016-Sep-17 07:34N 38°27' W 124°15'3014.9
2016-Sep-17 05:34N 38°17' W 123°39'1515.1
2016-Sep-17 04:34N 38°10' W 123°22'5212.9
2016-Sep-17 00:33N 37°48' W 122°22'2 0.3
2016-Sep-16 17:31N 37°48' W 122°19'0 0.0
2016-Sep-16 15:31N 37°48' W 122°19'0 0.0
2016-Sep-16 12:31N 37°48' W 122°19'0 0.0
2016-Sep-16 09:31N 37°48' W 122°19'0 0.0
2016-Sep-16 07:31N 37°48' W 122°19'0 0.0
2016-Sep-16 03:31N 37°48' W 122°19'0 0.0
2016-Sep-16 02:31N 37°48' W 122°19'8 3.9
2016-Sep-16 00:33N 37°49' W 122°29'2211.1
2016-Sep-15 22:33N 37°28' W 122°40'1414.3
2016-Sep-15 21:33N 37°14' W 122°40'1312.9
2016-Sep-15 20:33N 37°01' W 122°36'3216.1
2016-Sep-15 18:33N 36°31' W 122°21'23216.5
2016-Sep-15 04:33N 33°54' W 118°53'1310.8
2016-Sep-15 03:23N 33°48' W 118°40'2011.0
2016-Sep-15 01:33N 33°39' W 118°19'6 1.9
2016-Sep-14 22:31N 33°44' W 118°16'0 0.0
2016-Sep-14 21:31N 33°44' W 118°16'0 0.0
2016-Sep-14 17:25N 33°44' W 118°16'0 0.0
2016-Sep-14 16:31N 33°44' W 118°16'0 0.0
2016-Sep-14 13:28N 33°44' W 118°16'0 0.0
2016-Sep-14 12:16N 33°44' W 118°16'0 0.0
2016-Sep-14 10:19N 33°44' W 118°16'0 0.0
2016-Sep-14 09:31N 33°44' W 118°16'0 0.0
2016-Sep-14 08:28N 33°44' W 118°16'0 0.0
2016-Sep-14 07:31N 33°44' W 118°16'0 0.0
2016-Sep-14 06:31N 33°44' W 118°16'0 0.0
2016-Sep-14 03:13N 33°44' W 118°16'0 0.0
2016-Sep-13 22:31N 33°44' W 118°16'0 0.0
2016-Sep-13 11:28N 33°44' W 118°16'0 0.0
2016-Sep-13 09:31N 33°44' W 118°16'0 0.0
2016-Sep-13 07:14N 33°44' W 118°16'0 0.0
2016-Sep-13 04:32N 33°44' W 118°16'0 0.0
2016-Sep-13 02:26N 33°44' W 118°16'0 0.0
2016-Sep-12 21:17N 33°44' W 118°16'0 0.0
2016-Sep-12 19:17N 33°44' W 118°16'0 0.0
2016-Sep-12 17:32N 33°44' W 118°16'0 0.0
2016-Sep-12 14:32N 33°44' W 118°16'0 0.0
2016-Sep-12 13:29N 33°44' W 118°16'0 0.0
2016-Sep-12 12:32N 33°44' W 118°16'0 0.0
2016-Sep-12 11:32N 33°44' W 118°16'0 0.0
2016-Sep-12 10:32N 33°44' W 118°16'0 0.0
2016-Sep-12 07:32N 33°44' W 118°16'0 0.0
2016-Sep-12 06:32N 33°44' W 118°16'0 0.0
2016-Sep-12 03:32N 33°44' W 118°16'0 0.0
2016-Sep-12 01:32N 33°44' W 118°16'0 0.0
2016-Sep-11 23:32N 33°44' W 118°16'0 0.0
2016-Sep-11 22:32N 33°44' W 118°16'1 0.6
2016-Sep-11 21:33N 33°43' W 118°16'6 5.8
2016-Sep-11 20:33N 33°37' W 118°15'7 7.3
2016-Sep-11 19:33N 33°38' W 118°24'10 9.7
2016-Sep-11 18:34N 33°42' W 118°34'1010.2
2016-Sep-11 17:33N 33°47' W 118°45'1010.4
2016-Sep-11 16:33N 33°53' W 118°56'1010.3
2016-Sep-11 15:33N 33°58' W 119°07'1111.3
2016-Sep-11 14:33N 34°03' W 119°19'1515.5
2016-Sep-11 13:33N 34°07' W 119°37'1615.8
2016-Sep-11 12:33N 34°11' W 119°55'1515.3
2016-Sep-11 11:33N 34°15' W 120°13'1615.5
2016-Sep-11 10:32N 34°20' W 120°31'2713.5
2016-Sep-11 08:33N 34°27' W 121°02'1814.8
2016-Sep-11 07:20N 34°33' W 121°23'5614.9
2016-Sep-11 03:34N 34°53' W 122°27'1515.4
2016-Sep-11 02:33N 34°59' W 122°45'1515.3
2016-Sep-11 01:34N 35°05' W 123°02'1615.6
2016-Sep-11 00:32N 35°10' W 123°20'1515.6
2016-Sep-10 23:34N 35°16' W 123°38'1615.5
2016-Sep-10 22:33N 35°22' W 123°55'1615.6
2016-Sep-10 21:34N 35°27' W 124°13'1615.6
2016-Sep-10 20:34N 35°33' W 124°31'1615.7
2016-Sep-10 19:33N 35°38' W 124°49'1616.0
2016-Sep-10 18:34N 35°45' W 125°07'1615.8
2016-Sep-10 17:33N 35°52' W 125°24'1515.4
2016-Sep-10 16:33N 35°59' W 125°41'1515.5
2016-Sep-10 15:34N 36°06' W 125°58'1615.9
2016-Sep-10 14:33N 36°14' W 126°16'1615.8
2016-Sep-10 13:33N 36°22' W 126°33'1715.6
2016-Sep-10 12:28N 36°29' W 126°52'1617.6
2016-Sep-10 11:33N 36°38' W 127°08'4220.8
2016-Sep-10 09:33N 37°02' W 127°51'5321.6
2016-Sep-10 07:07N 37°32' W 128°46'1221.3
2016-Sep-10 06:32N 37°39' W 128°58'6321.0
2016-Sep-10 03:33N 38°14' W 130°05'2121.0
2016-Sep-10 02:33N 38°25' W 130°27'2120.9
2016-Sep-10 01:34N 38°36' W 130°49'2120.8
2016-Sep-10 00:33N 38°48' W 131°12'2120.8
2016-Sep-09 23:33N 38°59' W 131°34'2121.0
2016-Sep-09 22:33N 39°10' W 131°57'4221.1
2016-Sep-09 20:33N 39°32' W 132°43'  

Dump ship's entire track history